sensor_id;sensor_type;location;lat;lon;timestamp;P1;durP1;ratioP1;P2;durP2;ratioP2
51866;SDS011;52862;52.504;13.480;2023-05-17T00:01:38;13.27;;;2.97;;
51866;SDS011;52862;52.504;13.480;2023-05-17T00:04:04;15.77;;;2.00;;
51866;SDS011;52862;52.504;13.480;2023-05-17T00:06:31;11.13;;;2.10;;
51866;SDS011;52862;52.504;13.480;2023-05-17T00:09:00;13.93;;;2.77;;
51866;SDS011;52862;52.504;13.480;2023-05-17T00:11:26;10.53;;;2.47;;
51866;SDS011;52862;52.504;13.480;2023-05-17T00:13:53;12.23;;;3.23;;
51866;SDS011;52862;52.504;13.480;2023-05-17T00:16:20;21.77;;;3.43;;
51866;SDS011;52862;52.504;13.480;2023-05-17T00:18:46;11.53;;;2.93;;
51866;SDS011;52862;52.504;13.480;2023-05-17T00:21:14;13.10;;;2.63;;
51866;SDS011;52862;52.504;13.480;2023-05-17T00:23:40;16.87;;;3.17;;
51866;SDS011;52862;52.504;13.480;2023-05-17T00:26:09;14.47;;;3.03;;
51866;SDS011;52862;52.504;13.480;2023-05-17T00:28:35;11.33;;;2.40;;
51866;SDS011;52862;52.504;13.480;2023-05-17T00:31:02;19.37;;;3.03;;
51866;SDS011;52862;52.504;13.480;2023-05-17T00:33:29;20.40;;;2.93;;
51866;SDS011;52862;52.504;13.480;2023-05-17T00:35:56;22.77;;;3.23;;
51866;SDS011;52862;52.504;13.480;2023-05-17T00:38:23;26.43;;;3.33;;
51866;SDS011;52862;52.504;13.480;2023-05-17T00:40:49;17.13;;;3.60;;
51866;SDS011;52862;52.504;13.480;2023-05-17T00:43:19;17.27;;;4.53;;
51866;SDS011;52862;52.504;13.480;2023-05-17T00:45:46;25.43;;;3.13;;
51866;SDS011;52862;52.504;13.480;2023-05-17T00:48:14;10.73;;;2.97;;
51866;SDS011;52862;52.504;13.480;2023-05-17T00:50:42;19.30;;;4.27;;
51866;SDS011;52862;52.504;13.480;2023-05-17T00:53:08;21.17;;;4.63;;
51866;SDS011;52862;52.504;13.480;2023-05-17T00:55:41;16.53;;;3.80;;
51866;SDS011;52862;52.504;13.480;2023-05-17T00:58:08;25.57;;;4.33;;
51866;SDS011;52862;52.504;13.480;2023-05-17T01:00:36;24.53;;;3.53;;
51866;SDS011;52862;52.504;13.480;2023-05-17T01:03:03;32.50;;;3.77;;
51866;SDS011;52862;52.504;13.480;2023-05-17T01:05:30;16.33;;;3.60;;
51866;SDS011;52862;52.504;13.480;2023-05-17T01:07:57;25.37;;;4.13;;
51866;SDS011;52862;52.504;13.480;2023-05-17T01:10:25;19.40;;;4.13;;
51866;SDS011;52862;52.504;13.480;2023-05-17T01:13:02;21.60;;;4.10;;
51866;SDS011;52862;52.504;13.480;2023-05-17T01:15:35;14.93;;;4.10;;
51866;SDS011;52862;52.504;13.480;2023-05-17T01:18:08;22.87;;;3.90;;
51866;SDS011;52862;52.504;13.480;2023-05-17T01:20:43;24.87;;;5.03;;
51866;SDS011;52862;52.504;13.480;2023-05-17T01:23:17;27.93;;;4.97;;
51866;SDS011;52862;52.504;13.480;2023-05-17T01:26:06;25.57;;;4.73;;
51866;SDS011;52862;52.504;13.480;2023-05-17T01:28:44;25.93;;;4.40;;
51866;SDS011;52862;52.504;13.480;2023-05-17T01:31:14;22.57;;;5.33;;
51866;SDS011;52862;52.504;13.480;2023-05-17T01:33:42;35.50;;;6.13;;
51866;SDS011;52862;52.504;13.480;2023-05-17T01:36:09;26.70;;;5.00;;
51866;SDS011;52862;52.504;13.480;2023-05-17T01:38:36;15.23;;;4.60;;
51866;SDS011;52862;52.504;13.480;2023-05-17T01:41:04;19.97;;;4.97;;
51866;SDS011;52862;52.504;13.480;2023-05-17T01:43:38;24.13;;;5.57;;
51866;SDS011;52862;52.504;13.480;2023-05-17T01:46:12;20.93;;;4.27;;
51866;SDS011;52862;52.504;13.480;2023-05-17T01:48:49;17.87;;;4.00;;
51866;SDS011;52862;52.504;13.480;2023-05-17T01:51:21;33.13;;;5.80;;
51866;SDS011;52862;52.504;13.480;2023-05-17T01:53:54;26.07;;;4.77;;
51866;SDS011;52862;52.504;13.480;2023-05-17T01:56:27;27.97;;;4.83;;
51866;SDS011;52862;52.504;13.480;2023-05-17T01:58:59;35.00;;;5.87;;
51866;SDS011;52862;52.504;13.480;2023-05-17T02:01:30;35.50;;;5.10;;
51866;SDS011;52862;52.504;13.480;2023-05-17T02:03:57;23.93;;;4.83;;
51866;SDS011;52862;52.504;13.480;2023-05-17T02:06:24;15.77;;;4.50;;
51866;SDS011;52862;52.504;13.480;2023-05-17T02:08:51;17.63;;;4.90;;
51866;SDS011;52862;52.504;13.480;2023-05-17T02:11:18;26.10;;;4.27;;
51866;SDS011;52862;52.504;13.480;2023-05-17T02:13:45;15.90;;;4.50;;
51866;SDS011;52862;52.504;13.480;2023-05-17T02:16:12;20.67;;;4.77;;
51866;SDS011;52862;52.504;13.480;2023-05-17T02:18:39;43.93;;;7.50;;
51866;SDS011;52862;52.504;13.480;2023-05-17T02:21:06;31.90;;;5.87;;
51866;SDS011;52862;52.504;13.480;2023-05-17T02:23:33;25.33;;;4.70;;
51866;SDS011;52862;52.504;13.480;2023-05-17T02:26:00;30.07;;;5.33;;
51866;SDS011;52862;52.504;13.480;2023-05-17T02:28:27;30.80;;;5.20;;
51866;SDS011;52862;52.504;13.480;2023-05-17T02:30:53;20.43;;;5.07;;
51866;SDS011;52862;52.504;13.480;2023-05-17T02:33:21;25.13;;;5.00;;
51866;SDS011;52862;52.504;13.480;2023-05-17T02:35:48;18.30;;;4.80;;
51866;SDS011;52862;52.504;13.480;2023-05-17T02:38:15;33.33;;;4.37;;
51866;SDS011;52862;52.504;13.480;2023-05-17T02:40:42;30.23;;;5.30;;
51866;SDS011;52862;52.504;13.480;2023-05-17T02:43:08;24.20;;;4.67;;
51866;SDS011;52862;52.504;13.480;2023-05-17T02:45:35;26.40;;;5.77;;
51866;SDS011;52862;52.504;13.480;2023-05-17T02:48:02;20.47;;;4.37;;
51866;SDS011;52862;52.504;13.480;2023-05-17T02:50:29;23.60;;;5.00;;
51866;SDS011;52862;52.504;13.480;2023-05-17T02:52:57;28.63;;;6.43;;
51866;SDS011;52862;52.504;13.480;2023-05-17T02:55:24;28.07;;;4.70;;
51866;SDS011;52862;52.504;13.480;2023-05-17T02:57:50;28.57;;;6.53;;
51866;SDS011;52862;52.504;13.480;2023-05-17T03:00:17;21.40;;;4.73;;
51866;SDS011;52862;52.504;13.480;2023-05-17T03:02:44;28.07;;;5.40;;
51866;SDS011;52862;52.504;13.480;2023-05-17T03:05:11;31.73;;;5.53;;
51866;SDS011;52862;52.504;13.480;2023-05-17T03:07:38;20.10;;;5.03;;
51866;SDS011;52862;52.504;13.480;2023-05-17T03:10:06;28.13;;;5.33;;
51866;SDS011;52862;52.504;13.480;2023-05-17T03:12:33;27.17;;;5.60;;
51866;SDS011;52862;52.504;13.480;2023-05-17T03:15:00;26.97;;;5.10;;
51866;SDS011;52862;52.504;13.480;2023-05-17T03:17:27;29.77;;;5.63;;
51866;SDS011;52862;52.504;13.480;2023-05-17T03:19:54;31.57;;;5.67;;
51866;SDS011;52862;52.504;13.480;2023-05-17T03:22:21;29.20;;;5.60;;
51866;SDS011;52862;52.504;13.480;2023-05-17T03:24:48;23.87;;;5.33;;
51866;SDS011;52862;52.504;13.480;2023-05-17T03:27:16;30.97;;;5.13;;
51866;SDS011;52862;52.504;13.480;2023-05-17T03:29:42;22.07;;;4.43;;
51866;SDS011;52862;52.504;13.480;2023-05-17T03:32:09;20.77;;;4.37;;
51866;SDS011;52862;52.504;13.480;2023-05-17T03:34:36;26.57;;;5.17;;
51866;SDS011;52862;52.504;13.480;2023-05-17T03:37:03;27.10;;;5.17;;
51866;SDS011;52862;52.504;13.480;2023-05-17T03:39:30;24.43;;;5.77;;
51866;SDS011;52862;52.504;13.480;2023-05-17T03:41:56;17.07;;;4.93;;
51866;SDS011;52862;52.504;13.480;2023-05-17T03:44:24;21.57;;;4.90;;
51866;SDS011;52862;52.504;13.480;2023-05-17T03:46:50;24.53;;;6.23;;
51866;SDS011;52862;52.504;13.480;2023-05-17T03:49:17;29.47;;;6.67;;
51866;SDS011;52862;52.504;13.480;2023-05-17T03:51:44;29.47;;;5.57;;
51866;SDS011;52862;52.504;13.480;2023-05-17T03:54:11;22.00;;;4.77;;
51866;SDS011;52862;52.504;13.480;2023-05-17T03:56:38;24.97;;;6.00;;
51866;SDS011;52862;52.504;13.480;2023-05-17T03:59:04;24.57;;;6.07;;
51866;SDS011;52862;52.504;13.480;2023-05-17T04:01:32;25.50;;;5.13;;
51866;SDS011;52862;52.504;13.480;2023-05-17T04:03:58;33.17;;;5.13;;
51866;SDS011;52862;52.504;13.480;2023-05-17T04:06:28;20.73;;;5.40;;
51866;SDS011;52862;52.504;13.480;2023-05-17T04:08:55;28.47;;;5.80;;
51866;SDS011;52862;52.504;13.480;2023-05-17T04:11:24;26.17;;;4.93;;
51866;SDS011;52862;52.504;13.480;2023-05-17T04:13:52;31.27;;;6.00;;
51866;SDS011;52862;52.504;13.480;2023-05-17T04:16:19;23.93;;;5.77;;
51866;SDS011;52862;52.504;13.480;2023-05-17T04:18:47;23.50;;;4.77;;
51866;SDS011;52862;52.504;13.480;2023-05-17T04:21:17;21.47;;;5.20;;
51866;SDS011;52862;52.504;13.480;2023-05-17T04:23:44;36.77;;;5.77;;
51866;SDS011;52862;52.504;13.480;2023-05-17T04:26:11;30.57;;;5.53;;
51866;SDS011;52862;52.504;13.480;2023-05-17T04:28:37;27.67;;;5.43;;
51866;SDS011;52862;52.504;13.480;2023-05-17T04:31:05;17.50;;;5.33;;
51866;SDS011;52862;52.504;13.480;2023-05-17T04:33:33;22.83;;;5.53;;
51866;SDS011;52862;52.504;13.480;2023-05-17T04:36:00;23.70;;;5.23;;
51866;SDS011;52862;52.504;13.480;2023-05-17T04:38:28;23.23;;;5.00;;
51866;SDS011;52862;52.504;13.480;2023-05-17T04:40:59;23.33;;;5.10;;
51866;SDS011;52862;52.504;13.480;2023-05-17T04:43:27;28.03;;;5.27;;
51866;SDS011;52862;52.504;13.480;2023-05-17T04:45:55;28.03;;;5.87;;
51866;SDS011;52862;52.504;13.480;2023-05-17T04:48:22;36.27;;;6.00;;
51866;SDS011;52862;52.504;13.480;2023-05-17T04:50:50;23.27;;;4.70;;
51866;SDS011;52862;52.504;13.480;2023-05-17T04:53:17;31.40;;;5.57;;
51866;SDS011;52862;52.504;13.480;2023-05-17T04:55:44;16.67;;;4.93;;
51866;SDS011;52862;52.504;13.480;2023-05-17T04:58:12;19.07;;;5.37;;
51866;SDS011;52862;52.504;13.480;2023-05-17T05:00:39;31.57;;;6.43;;
51866;SDS011;52862;52.504;13.480;2023-05-17T05:03:06;28.83;;;5.60;;
51866;SDS011;52862;52.504;13.480;2023-05-17T05:05:33;26.73;;;5.57;;
51866;SDS011;52862;52.504;13.480;2023-05-17T05:08:00;33.07;;;6.47;;
51866;SDS011;52862;52.504;13.480;2023-05-17T05:10:27;25.10;;;5.30;;
51866;SDS011;52862;52.504;13.480;2023-05-17T05:12:54;32.27;;;5.63;;
51866;SDS011;52862;52.504;13.480;2023-05-17T05:15:22;27.87;;;5.47;;
51866;SDS011;52862;52.504;13.480;2023-05-17T05:17:49;35.00;;;5.93;;
51866;SDS011;52862;52.504;13.480;2023-05-17T05:20:16;27.60;;;4.93;;
51866;SDS011;52862;52.504;13.480;2023-05-17T05:22:43;27.07;;;6.03;;
51866;SDS011;52862;52.504;13.480;2023-05-17T05:25:10;29.90;;;6.00;;
51866;SDS011;52862;52.504;13.480;2023-05-17T05:27:37;23.60;;;4.80;;
51866;SDS011;52862;52.504;13.480;2023-05-17T05:30:04;35.00;;;5.30;;
51866;SDS011;52862;52.504;13.480;2023-05-17T05:32:32;31.33;;;4.90;;
51866;SDS011;52862;52.504;13.480;2023-05-17T05:34:59;28.17;;;5.10;;
51866;SDS011;52862;52.504;13.480;2023-05-17T05:37:26;27.83;;;5.50;;
51866;SDS011;52862;52.504;13.480;2023-05-17T05:39:52;20.53;;;4.00;;
51866;SDS011;52862;52.504;13.480;2023-05-17T05:42:19;28.87;;;5.00;;
51866;SDS011;52862;52.504;13.480;2023-05-17T05:44:46;20.63;;;4.00;;
51866;SDS011;52862;52.504;13.480;2023-05-17T05:47:13;32.43;;;4.67;;
51866;SDS011;52862;52.504;13.480;2023-05-17T05:49:40;26.63;;;4.70;;
51866;SDS011;52862;52.504;13.480;2023-05-17T05:52:07;34.83;;;4.67;;
51866;SDS011;52862;52.504;13.480;2023-05-17T05:54:33;23.87;;;5.63;;
51866;SDS011;52862;52.504;13.480;2023-05-17T05:57:00;40.33;;;6.03;;
51866;SDS011;52862;52.504;13.480;2023-05-17T05:59:27;22.37;;;4.73;;
51866;SDS011;52862;52.504;13.480;2023-05-17T06:01:54;38.63;;;5.73;;
51866;SDS011;52862;52.504;13.480;2023-05-17T06:04:21;35.57;;;4.53;;
51866;SDS011;52862;52.504;13.480;2023-05-17T06:07:06;35.07;;;5.10;;
51866;SDS011;52862;52.504;13.480;2023-05-17T06:09:33;42.73;;;5.33;;
51866;SDS011;52862;52.504;13.480;2023-05-17T06:12:00;36.43;;;3.43;;
51866;SDS011;52862;52.504;13.480;2023-05-17T06:14:26;16.70;;;3.87;;
51866;SDS011;52862;52.504;13.480;2023-05-17T06:16:53;22.67;;;4.00;;
51866;SDS011;52862;52.504;13.480;2023-05-17T06:19:21;30.47;;;4.73;;
51866;SDS011;52862;52.504;13.480;2023-05-17T06:21:48;21.33;;;4.30;;
51866;SDS011;52862;52.504;13.480;2023-05-17T06:24:14;24.00;;;3.97;;
51866;SDS011;52862;52.504;13.480;2023-05-17T06:26:42;21.03;;;4.37;;
51866;SDS011;52862;52.504;13.480;2023-05-17T06:29:08;38.43;;;4.87;;
51866;SDS011;52862;52.504;13.480;2023-05-17T06:31:35;16.80;;;3.23;;
51866;SDS011;52862;52.504;13.480;2023-05-17T06:34:02;21.73;;;4.17;;
51866;SDS011;52862;52.504;13.480;2023-05-17T06:36:29;40.13;;;4.53;;
51866;SDS011;52862;52.504;13.480;2023-05-17T06:38:58;24.50;;;4.27;;
51866;SDS011;52862;52.504;13.480;2023-05-17T06:41:25;26.10;;;3.87;;
51866;SDS011;52862;52.504;13.480;2023-05-17T06:43:51;17.97;;;3.37;;
51866;SDS011;52862;52.504;13.480;2023-05-17T06:46:18;16.93;;;3.43;;
51866;SDS011;52862;52.504;13.480;2023-05-17T06:48:45;29.27;;;4.67;;
51866;SDS011;52862;52.504;13.480;2023-05-17T06:51:16;19.93;;;2.80;;
51866;SDS011;52862;52.504;13.480;2023-05-17T06:53:43;34.50;;;4.50;;
51866;SDS011;52862;52.504;13.480;2023-05-17T06:56:10;26.00;;;4.17;;
51866;SDS011;52862;52.504;13.480;2023-05-17T06:58:36;25.60;;;4.27;;
51866;SDS011;52862;52.504;13.480;2023-05-17T07:01:03;23.03;;;3.43;;
51866;SDS011;52862;52.504;13.480;2023-05-17T07:03:30;17.67;;;2.77;;
51866;SDS011;52862;52.504;13.480;2023-05-17T07:05:57;27.33;;;3.90;;
51866;SDS011;52862;52.504;13.480;2023-05-17T07:08:24;29.07;;;3.60;;
51866;SDS011;52862;52.504;13.480;2023-05-17T07:10:51;24.87;;;3.23;;
51866;SDS011;52862;52.504;13.480;2023-05-17T07:13:18;31.77;;;2.97;;
51866;SDS011;52862;52.504;13.480;2023-05-17T07:15:45;28.67;;;4.13;;
51866;SDS011;52862;52.504;13.480;2023-05-17T07:18:12;24.77;;;3.33;;
51866;SDS011;52862;52.504;13.480;2023-05-17T07:20:39;26.77;;;4.00;;
51866;SDS011;52862;52.504;13.480;2023-05-17T07:23:06;22.70;;;3.33;;
51866;SDS011;52862;52.504;13.480;2023-05-17T07:25:33;22.57;;;3.33;;
51866;SDS011;52862;52.504;13.480;2023-05-17T07:28:03;23.93;;;3.17;;
51866;SDS011;52862;52.504;13.480;2023-05-17T07:30:30;19.83;;;3.30;;
51866;SDS011;52862;52.504;13.480;2023-05-17T07:32:57;27.30;;;3.47;;
51866;SDS011;52862;52.504;13.480;2023-05-17T07:35:24;27.47;;;3.43;;
51866;SDS011;52862;52.504;13.480;2023-05-17T07:37:51;32.63;;;3.70;;
51866;SDS011;52862;52.504;13.480;2023-05-17T07:40:18;14.93;;;2.30;;
51866;SDS011;52862;52.504;13.480;2023-05-17T07:42:45;26.93;;;3.63;;
51866;SDS011;52862;52.504;13.480;2023-05-17T07:45:12;22.37;;;2.97;;
51866;SDS011;52862;52.504;13.480;2023-05-17T07:47:39;18.30;;;3.57;;
51866;SDS011;52862;52.504;13.480;2023-05-17T07:50:06;21.40;;;3.47;;
51866;SDS011;52862;52.504;13.480;2023-05-17T07:52:33;16.73;;;3.20;;
51866;SDS011;52862;52.504;13.480;2023-05-17T07:55:00;24.47;;;4.07;;
51866;SDS011;52862;52.504;13.480;2023-05-17T07:57:28;16.77;;;3.60;;
51866;SDS011;52862;52.504;13.480;2023-05-17T07:59:55;23.50;;;3.50;;
51866;SDS011;52862;52.504;13.480;2023-05-17T08:02:23;19.93;;;3.60;;
51866;SDS011;52862;52.504;13.480;2023-05-17T08:04:49;25.77;;;3.97;;
51866;SDS011;52862;52.504;13.480;2023-05-17T08:07:16;23.37;;;3.87;;
51866;SDS011;52862;52.504;13.480;2023-05-17T08:09:43;27.30;;;4.40;;
51866;SDS011;52862;52.504;13.480;2023-05-17T08:12:10;33.07;;;3.83;;
51866;SDS011;52862;52.504;13.480;2023-05-17T08:14:38;35.80;;;4.23;;
51866;SDS011;52862;52.504;13.480;2023-05-17T08:17:04;21.13;;;3.33;;
51866;SDS011;52862;52.504;13.480;2023-05-17T08:19:32;16.83;;;3.30;;
51866;SDS011;52862;52.504;13.480;2023-05-17T08:21:59;29.47;;;3.43;;
51866;SDS011;52862;52.504;13.480;2023-05-17T08:24:26;19.00;;;2.93;;
51866;SDS011;52862;52.504;13.480;2023-05-17T08:26:53;24.60;;;3.73;;
51866;SDS011;52862;52.504;13.480;2023-05-17T08:29:19;17.97;;;2.47;;
51866;SDS011;52862;52.504;13.480;2023-05-17T08:31:46;21.50;;;2.93;;
51866;SDS011;52862;52.504;13.480;2023-05-17T08:34:14;19.60;;;3.27;;
51866;SDS011;52862;52.504;13.480;2023-05-17T08:36:42;14.10;;;2.33;;
51866;SDS011;52862;52.504;13.480;2023-05-17T08:39:10;24.03;;;3.20;;
51866;SDS011;52862;52.504;13.480;2023-05-17T08:41:37;21.67;;;3.23;;
51866;SDS011;52862;52.504;13.480;2023-05-17T08:44:04;20.87;;;3.60;;
51866;SDS011;52862;52.504;13.480;2023-05-17T08:46:31;11.77;;;2.47;;
51866;SDS011;52862;52.504;13.480;2023-05-17T08:49:01;24.93;;;2.97;;
51866;SDS011;52862;52.504;13.480;2023-05-17T08:51:30;29.80;;;4.00;;
51866;SDS011;52862;52.504;13.480;2023-05-17T08:53:58;27.90;;;4.20;;
51866;SDS011;52862;52.504;13.480;2023-05-17T08:56:29;30.70;;;3.33;;
51866;SDS011;52862;52.504;13.480;2023-05-17T08:58:57;54.47;;;3.87;;
51866;SDS011;52862;52.504;13.480;2023-05-17T09:01:25;35.53;;;3.97;;
51866;SDS011;52862;52.504;13.480;2023-05-17T09:03:55;26.67;;;4.20;;
51866;SDS011;52862;52.504;13.480;2023-05-17T09:06:22;21.20;;;3.07;;
51866;SDS011;52862;52.504;13.480;2023-05-17T09:08:49;26.53;;;4.10;;
51866;SDS011;52862;52.504;13.480;2023-05-17T09:11:23;17.00;;;2.90;;
51866;SDS011;52862;52.504;13.480;2023-05-17T09:13:52;20.43;;;3.13;;
51866;SDS011;52862;52.504;13.480;2023-05-17T09:16:19;21.13;;;2.70;;
51866;SDS011;52862;52.504;13.480;2023-05-17T09:18:52;13.93;;;2.83;;
51866;SDS011;52862;52.504;13.480;2023-05-17T09:21:21;31.70;;;3.37;;
51866;SDS011;52862;52.504;13.480;2023-05-17T09:23:51;31.80;;;3.23;;
51866;SDS011;52862;52.504;13.480;2023-05-17T09:26:39;17.03;;;2.70;;
51866;SDS011;52862;52.504;13.480;2023-05-17T09:29:10;32.43;;;2.97;;
51866;SDS011;52862;52.504;13.480;2023-05-17T09:31:37;27.53;;;3.50;;
51866;SDS011;52862;52.504;13.480;2023-05-17T09:34:04;21.17;;;2.97;;
51866;SDS011;52862;52.504;13.480;2023-05-17T09:36:33;45.30;;;3.60;;
51866;SDS011;52862;52.504;13.480;2023-05-17T09:39:02;26.60;;;3.73;;
51866;SDS011;52862;52.504;13.480;2023-05-17T09:41:30;17.07;;;3.27;;
51866;SDS011;52862;52.504;13.480;2023-05-17T09:43:59;18.53;;;3.03;;
51866;SDS011;52862;52.504;13.480;2023-05-17T09:46:27;19.33;;;3.60;;
51866;SDS011;52862;52.504;13.480;2023-05-17T09:48:59;17.60;;;3.57;;
51866;SDS011;52862;52.504;13.480;2023-05-17T09:51:31;26.50;;;2.97;;
51866;SDS011;52862;52.504;13.480;2023-05-17T09:53:58;24.03;;;3.83;;
51866;SDS011;52862;52.504;13.480;2023-05-17T09:56:29;29.67;;;3.47;;
51866;SDS011;52862;52.504;13.480;2023-05-17T09:58:56;44.07;;;3.57;;
51866;SDS011;52862;52.504;13.480;2023-05-17T10:01:27;21.10;;;3.27;;
51866;SDS011;52862;52.504;13.480;2023-05-17T10:03:54;20.53;;;3.03;;
51866;SDS011;52862;52.504;13.480;2023-05-17T10:06:26;24.03;;;3.17;;
51866;SDS011;52862;52.504;13.480;2023-05-17T10:09:13;9.37;;;2.53;;
51866;SDS011;52862;52.504;13.480;2023-05-17T10:11:40;32.50;;;3.37;;
51866;SDS011;52862;52.504;13.480;2023-05-17T10:14:12;19.40;;;3.90;;
51866;SDS011;52862;52.504;13.480;2023-05-17T10:16:44;31.03;;;3.40;;
51866;SDS011;52862;52.504;13.480;2023-05-17T10:19:11;17.60;;;3.47;;
51866;SDS011;52862;52.504;13.480;2023-05-17T10:21:39;21.07;;;3.73;;
51866;SDS011;52862;52.504;13.480;2023-05-17T10:24:07;23.00;;;3.03;;
51866;SDS011;52862;52.504;13.480;2023-05-17T10:26:36;22.30;;;3.33;;
51866;SDS011;52862;52.504;13.480;2023-05-17T10:29:03;19.77;;;2.50;;
51866;SDS011;52862;52.504;13.480;2023-05-17T10:31:32;25.30;;;3.27;;
51866;SDS011;52862;52.504;13.480;2023-05-17T10:34:00;19.10;;;3.07;;
51866;SDS011;52862;52.504;13.480;2023-05-17T10:36:28;27.03;;;3.43;;
51866;SDS011;52862;52.504;13.480;2023-05-17T10:38:55;38.20;;;5.00;;
51866;SDS011;52862;52.504;13.480;2023-05-17T10:41:24;16.47;;;2.73;;
51866;SDS011;52862;52.504;13.480;2023-05-17T10:43:53;24.33;;;3.40;;
51866;SDS011;52862;52.504;13.480;2023-05-17T10:46:20;20.67;;;3.27;;
51866;SDS011;52862;52.504;13.480;2023-05-17T10:48:49;22.40;;;3.43;;
51866;SDS011;52862;52.504;13.480;2023-05-17T10:51:20;18.17;;;2.83;;
51866;SDS011;52862;52.504;13.480;2023-05-17T10:54:06;18.60;;;2.40;;
51866;SDS011;52862;52.504;13.480;2023-05-17T10:56:34;20.30;;;2.97;;
51866;SDS011;52862;52.504;13.480;2023-05-17T10:59:19;14.97;;;2.23;;
51866;SDS011;52862;52.504;13.480;2023-05-17T11:01:48;19.53;;;2.87;;
51866;SDS011;52862;52.504;13.480;2023-05-17T11:04:21;24.00;;;3.03;;
51866;SDS011;52862;52.504;13.480;2023-05-17T11:06:51;32.63;;;3.37;;
51866;SDS011;52862;52.504;13.480;2023-05-17T11:09:20;17.30;;;3.27;;
51866;SDS011;52862;52.504;13.480;2023-05-17T11:12:05;22.40;;;3.30;;
51866;SDS011;52862;52.504;13.480;2023-05-17T11:17:24;18.97;;;2.80;;
51866;SDS011;52862;52.504;13.480;2023-05-17T11:19:56;19.13;;;3.67;;
51866;SDS011;52862;52.504;13.480;2023-05-17T11:22:33;16.63;;;3.03;;
51866;SDS011;52862;52.504;13.480;2023-05-17T11:25:04;15.03;;;2.77;;
51866;SDS011;52862;52.504;13.480;2023-05-17T11:27:34;15.77;;;2.37;;
51866;SDS011;52862;52.504;13.480;2023-05-17T11:30:11;25.17;;;3.40;;
51866;SDS011;52862;52.504;13.480;2023-05-17T11:32:45;11.10;;;2.70;;
51866;SDS011;52862;52.504;13.480;2023-05-17T11:35:13;18.17;;;3.43;;
51866;SDS011;52862;52.504;13.480;2023-05-17T11:37:41;21.67;;;3.43;;
51866;SDS011;52862;52.504;13.480;2023-05-17T11:40:09;17.57;;;3.23;;
51866;SDS011;52862;52.504;13.480;2023-05-17T11:42:37;24.90;;;3.47;;
51866;SDS011;52862;52.504;13.480;2023-05-17T11:45:05;16.97;;;2.70;;
51866;SDS011;52862;52.504;13.480;2023-05-17T11:47:33;36.57;;;3.00;;
51866;SDS011;52862;52.504;13.480;2023-05-17T11:50:05;13.23;;;3.17;;
51866;SDS011;52862;52.504;13.480;2023-05-17T11:52:32;24.50;;;3.37;;
51866;SDS011;52862;52.504;13.480;2023-05-17T11:55:00;24.93;;;2.77;;
51866;SDS011;52862;52.504;13.480;2023-05-17T11:57:29;35.67;;;3.03;;
51866;SDS011;52862;52.504;13.480;2023-05-17T11:59:59;15.10;;;3.00;;
51866;SDS011;52862;52.504;13.480;2023-05-17T12:02:28;13.73;;;2.83;;
51866;SDS011;52862;52.504;13.480;2023-05-17T12:04:55;13.57;;;2.93;;
51866;SDS011;52862;52.504;13.480;2023-05-17T12:07:23;18.13;;;2.67;;
51866;SDS011;52862;52.504;13.480;2023-05-17T12:09:51;25.53;;;3.30;;
51866;SDS011;52862;52.504;13.480;2023-05-17T12:12:19;18.57;;;2.83;;
51866;SDS011;52862;52.504;13.480;2023-05-17T12:14:46;19.20;;;3.47;;
51866;SDS011;52862;52.504;13.480;2023-05-17T12:17:20;17.97;;;2.80;;
51866;SDS011;52862;52.504;13.480;2023-05-17T12:20:04;14.33;;;2.40;;
51866;SDS011;52862;52.504;13.480;2023-05-17T12:22:32;30.90;;;3.37;;
51866;SDS011;52862;52.504;13.480;2023-05-17T12:24:59;20.33;;;2.93;;
51866;SDS011;52862;52.504;13.480;2023-05-17T12:27:26;17.87;;;2.77;;
51866;SDS011;52862;52.504;13.480;2023-05-17T12:29:53;22.43;;;3.83;;
51866;SDS011;52862;52.504;13.480;2023-05-17T12:32:21;20.23;;;2.63;;
51866;SDS011;52862;52.504;13.480;2023-05-17T12:34:48;22.53;;;2.83;;
51866;SDS011;52862;52.504;13.480;2023-05-17T12:37:15;15.03;;;2.87;;
51866;SDS011;52862;52.504;13.480;2023-05-17T12:39:42;27.47;;;2.57;;
51866;SDS011;52862;52.504;13.480;2023-05-17T12:42:09;24.67;;;2.43;;
51866;SDS011;52862;52.504;13.480;2023-05-17T12:44:37;20.70;;;2.97;;
51866;SDS011;52862;52.504;13.480;2023-05-17T12:47:04;26.13;;;3.17;;
51866;SDS011;52862;52.504;13.480;2023-05-17T12:49:36;19.30;;;3.50;;
51866;SDS011;52862;52.504;13.480;2023-05-17T12:52:03;25.77;;;3.20;;
51866;SDS011;52862;52.504;13.480;2023-05-17T12:54:31;20.80;;;3.17;;
51866;SDS011;52862;52.504;13.480;2023-05-17T12:57:07;16.67;;;3.43;;
51866;SDS011;52862;52.504;13.480;2023-05-17T12:59:45;18.67;;;2.83;;
51866;SDS011;52862;52.504;13.480;2023-05-17T13:02:12;25.83;;;2.50;;
51866;SDS011;52862;52.504;13.480;2023-05-17T13:04:40;40.13;;;3.40;;
51866;SDS011;52862;52.504;13.480;2023-05-17T13:07:08;19.10;;;2.90;;
51866;SDS011;52862;52.504;13.480;2023-05-17T13:09:36;18.90;;;3.10;;
51866;SDS011;52862;52.504;13.480;2023-05-17T13:12:16;23.10;;;2.70;;
51866;SDS011;52862;52.504;13.480;2023-05-17T13:14:45;19.27;;;4.10;;
51866;SDS011;52862;52.504;13.480;2023-05-17T13:17:15;21.53;;;3.07;;
51866;SDS011;52862;52.504;13.480;2023-05-17T13:19:43;14.57;;;3.03;;
51866;SDS011;52862;52.504;13.480;2023-05-17T13:22:10;17.93;;;2.40;;
51866;SDS011;52862;52.504;13.480;2023-05-17T13:24:37;15.50;;;2.50;;
51866;SDS011;52862;52.504;13.480;2023-05-17T13:27:04;19.67;;;3.53;;
51866;SDS011;52862;52.504;13.480;2023-05-17T13:29:32;12.33;;;2.80;;
51866;SDS011;52862;52.504;13.480;2023-05-17T13:32:07;19.90;;;2.50;;
51866;SDS011;52862;52.504;13.480;2023-05-17T13:34:35;18.93;;;2.47;;
51866;SDS011;52862;52.504;13.480;2023-05-17T13:37:03;15.70;;;3.13;;
51866;SDS011;52862;52.504;13.480;2023-05-17T13:39:32;23.03;;;3.07;;
51866;SDS011;52862;52.504;13.480;2023-05-17T13:41:59;15.77;;;2.70;;
51866;SDS011;52862;52.504;13.480;2023-05-17T13:44:26;19.67;;;3.93;;
51866;SDS011;52862;52.504;13.480;2023-05-17T13:46:52;23.97;;;3.40;;
51866;SDS011;52862;52.504;13.480;2023-05-17T13:49:20;18.83;;;3.53;;
51866;SDS011;52862;52.504;13.480;2023-05-17T13:51:47;18.60;;;3.30;;
51866;SDS011;52862;52.504;13.480;2023-05-17T13:54:14;11.90;;;2.83;;
51866;SDS011;52862;52.504;13.480;2023-05-17T13:56:41;21.33;;;3.43;;
51866;SDS011;52862;52.504;13.480;2023-05-17T13:59:08;12.47;;;2.73;;
51866;SDS011;52862;52.504;13.480;2023-05-17T14:01:34;15.90;;;2.83;;
51866;SDS011;52862;52.504;13.480;2023-05-17T14:04:01;24.73;;;3.53;;
51866;SDS011;52862;52.504;13.480;2023-05-17T14:06:29;30.83;;;3.50;;
51866;SDS011;52862;52.504;13.480;2023-05-17T14:08:55;20.53;;;3.40;;
51866;SDS011;52862;52.504;13.480;2023-05-17T14:11:23;20.00;;;2.80;;
51866;SDS011;52862;52.504;13.480;2023-05-17T14:13:50;12.52;;;2.58;;
51866;SDS011;52862;52.504;13.480;2023-05-17T14:16:17;25.85;;;3.40;;
51866;SDS011;52862;52.504;13.480;2023-05-17T14:18:44;19.73;;;3.58;;
51866;SDS011;52862;52.504;13.480;2023-05-17T14:21:11;20.23;;;2.97;;
51866;SDS011;52862;52.504;13.480;2023-05-17T14:23:38;14.25;;;3.22;;
51866;SDS011;52862;52.504;13.480;2023-05-17T14:26:05;18.30;;;2.95;;
51866;SDS011;52862;52.504;13.480;2023-05-17T14:28:32;16.95;;;2.97;;
51866;SDS011;52862;52.504;13.480;2023-05-17T14:31:02;14.10;;;2.80;;